sensor_id;sensor_type;location;lat;lon;timestamp;temperature;humidity
79049;DHT22;68680;50.764;6.120;2023-05-07T00:01:04;13.50;94.00
79049;DHT22;68680;50.764;6.120;2023-05-07T00:03:30;13.50;94.10
79049;DHT22;68680;50.764;6.120;2023-05-07T00:05:56;13.40;94.10
79049;DHT22;68680;50.764;6.120;2023-05-07T00:08:21;13.40;94.10
79049;DHT22;68680;50.764;6.120;2023-05-07T00:10:47;13.50;94.10
79049;DHT22;68680;50.764;6.120;2023-05-07T00:13:13;13.50;93.70
79049;DHT22;68680;50.764;6.120;2023-05-07T00:15:39;13.50;93.80
79049;DHT22;68680;50.764;6.120;2023-05-07T00:18:06;13.50;93.90
79049;DHT22;68680;50.764;6.120;2023-05-07T00:20:32;13.50;93.80
79049;DHT22;68680;50.764;6.120;2023-05-07T00:22:58;13.60;93.80
79049;DHT22;68680;50.764;6.120;2023-05-07T00:25:23;13.70;93.80
79049;DHT22;68680;50.764;6.120;2023-05-07T00:27:49;13.60;93.80
79049;DHT22;68680;50.764;6.120;2023-05-07T00:30:15;13.60;93.70
79049;DHT22;68680;50.764;6.120;2023-05-07T00:32:44;13.60;93.40
79049;DHT22;68680;50.764;6.120;2023-05-07T00:35:11;13.60;93.40
79049;DHT22;68680;50.764;6.120;2023-05-07T00:37:37;13.70;93.70
79049;DHT22;68680;50.764;6.120;2023-05-07T00:40:04;13.70;93.60
79049;DHT22;68680;50.764;6.120;2023-05-07T00:42:30;13.70;93.50
79049;DHT22;68680;50.764;6.120;2023-05-07T00:44:56;13.70;93.60
79049;DHT22;68680;50.764;6.120;2023-05-07T00:47:22;13.70;93.40
79049;DHT22;68680;50.764;6.120;2023-05-07T00:49:48;13.70;93.20
79049;DHT22;68680;50.764;6.120;2023-05-07T00:52:17;13.80;92.80
79049;DHT22;68680;50.764;6.120;2023-05-07T00:54:45;13.70;93.30
79049;DHT22;68680;50.764;6.120;2023-05-07T00:57:11;13.70;93.30
79049;DHT22;68680;50.764;6.120;2023-05-07T00:59:37;13.70;93.30
79049;DHT22;68680;50.764;6.120;2023-05-07T01:02:03;13.70;93.40
79049;DHT22;68680;50.764;6.120;2023-05-07T01:04:29;13.70;93.30
79049;DHT22;68680;50.764;6.120;2023-05-07T01:06:55;13.70;93.30
79049;DHT22;68680;50.764;6.120;2023-05-07T01:09:24;13.70;93.30
79049;DHT22;68680;50.764;6.120;2023-05-07T01:11:51;13.70;93.10
79049;DHT22;68680;50.764;6.120;2023-05-07T01:14:18;13.70;93.00
79049;DHT22;68680;50.764;6.120;2023-05-07T01:16:45;13.70;93.10
79049;DHT22;68680;50.764;6.120;2023-05-07T01:19:12;13.70;93.30
79049;DHT22;68680;50.764;6.120;2023-05-07T01:21:45;13.70;93.20
79049;DHT22;68680;50.764;6.120;2023-05-07T01:24:14;13.70;93.40
79049;DHT22;68680;50.764;6.120;2023-05-07T01:26:41;13.70;93.70
79049;DHT22;68680;50.764;6.120;2023-05-07T01:29:07;13.60;93.20
79049;DHT22;68680;50.764;6.120;2023-05-07T01:31:34;13.60;93.10
79049;DHT22;68680;50.764;6.120;2023-05-07T01:34:01;13.60;93.40
79049;DHT22;68680;50.764;6.120;2023-05-07T01:36:29;13.60;93.80
79049;DHT22;68680;50.764;6.120;2023-05-07T01:38:57;13.60;93.30
79049;DHT22;68680;50.764;6.120;2023-05-07T01:41:25;13.50;93.50
79049;DHT22;68680;50.764;6.120;2023-05-07T01:43:52;13.50;93.80
79049;DHT22;68680;50.764;6.120;2023-05-07T01:46:19;13.40;93.80
79049;DHT22;68680;50.764;6.120;2023-05-07T01:48:46;13.40;93.90
79049;DHT22;68680;50.764;6.120;2023-05-07T01:51:12;13.40;93.90
79049;DHT22;68680;50.764;6.120;2023-05-07T01:53:39;13.30;94.00
79049;DHT22;68680;50.764;6.120;2023-05-07T01:56:05;13.40;94.00
79049;DHT22;68680;50.764;6.120;2023-05-07T01:58:33;13.30;93.90
79049;DHT22;68680;50.764;6.120;2023-05-07T02:00:59;13.30;93.90
79049;DHT22;68680;50.764;6.120;2023-05-07T02:03:25;13.30;93.90
79049;DHT22;68680;50.764;6.120;2023-05-07T02:05:51;13.20;94.00
79049;DHT22;68680;50.764;6.120;2023-05-07T02:08:16;13.20;94.00
79049;DHT22;68680;50.764;6.120;2023-05-07T02:10:42;13.10;93.90
79049;DHT22;68680;50.764;6.120;2023-05-07T02:13:08;13.10;94.50
79049;DHT22;68680;50.764;6.120;2023-05-07T02:15:35;13.00;94.40
79049;DHT22;68680;50.764;6.120;2023-05-07T02:18:03;13.00;94.60
79049;DHT22;68680;50.764;6.120;2023-05-07T02:20:29;13.00;94.50
79049;DHT22;68680;50.764;6.120;2023-05-07T02:22:55;12.90;94.50
79049;DHT22;68680;50.764;6.120;2023-05-07T02:25:21;12.80;94.60
79049;DHT22;68680;50.764;6.120;2023-05-07T02:27:47;12.80;94.70
79049;DHT22;68680;50.764;6.120;2023-05-07T02:30:14;12.80;94.70
79049;DHT22;68680;50.764;6.120;2023-05-07T02:32:41;12.80;94.60
79049;DHT22;68680;50.764;6.120;2023-05-07T02:35:07;12.80;94.70
79049;DHT22;68680;50.764;6.120;2023-05-07T02:37:33;12.70;94.70
79049;DHT22;68680;50.764;6.120;2023-05-07T02:39:59;12.70;94.90
79049;DHT22;68680;50.764;6.120;2023-05-07T02:42:25;12.70;95.10
79049;DHT22;68680;50.764;6.120;2023-05-07T02:44:50;12.70;94.80
79049;DHT22;68680;50.764;6.120;2023-05-07T02:47:16;12.70;94.90
79049;DHT22;68680;50.764;6.120;2023-05-07T02:49:43;12.70;95.00
79049;DHT22;68680;50.764;6.120;2023-05-07T02:52:09;12.80;95.00
79049;DHT22;68680;50.764;6.120;2023-05-07T02:54:35;12.80;94.80
79049;DHT22;68680;50.764;6.120;2023-05-07T02:57:00;12.80;94.70
79049;DHT22;68680;50.764;6.120;2023-05-07T02:59:26;12.80;94.70
79049;DHT22;68680;50.764;6.120;2023-05-07T03:01:52;12.90;94.80
79049;DHT22;68680;50.764;6.120;2023-05-07T03:04:18;12.90;94.90
79049;DHT22;68680;50.764;6.120;2023-05-07T03:06:45;12.90;94.80
79049;DHT22;68680;50.764;6.120;2023-05-07T03:09:10;12.90;94.70
79049;DHT22;68680;50.764;6.120;2023-05-07T03:11:36;12.90;94.70
79049;DHT22;68680;50.764;6.120;2023-05-07T03:14:02;13.00;94.80
79049;DHT22;68680;50.764;6.120;2023-05-07T03:16:28;13.00;94.70
79049;DHT22;68680;50.764;6.120;2023-05-07T03:18:54;13.00;94.80
79049;DHT22;68680;50.764;6.120;2023-05-07T03:21:19;13.10;94.70
79049;DHT22;68680;50.764;6.120;2023-05-07T03:23:46;13.20;94.70
79049;DHT22;68680;50.764;6.120;2023-05-07T03:26:12;13.10;94.50
79049;DHT22;68680;50.764;6.120;2023-05-07T03:28:38;13.20;93.90
79049;DHT22;68680;50.764;6.120;2023-05-07T03:31:04;13.10;94.20
79049;DHT22;68680;50.764;6.120;2023-05-07T03:33:29;13.10;93.80
79049;DHT22;68680;50.764;6.120;2023-05-07T03:35:58;13.00;93.90
79049;DHT22;68680;50.764;6.120;2023-05-07T03:38:24;13.00;94.10
79049;DHT22;68680;50.764;6.120;2023-05-07T03:40:51;12.90;94.30
79049;DHT22;68680;50.764;6.120;2023-05-07T03:43:17;12.90;94.30
79049;DHT22;68680;50.764;6.120;2023-05-07T03:45:42;12.80;94.10
79049;DHT22;68680;50.764;6.120;2023-05-07T03:48:08;12.80;94.50
79049;DHT22;68680;50.764;6.120;2023-05-07T03:50:34;12.80;94.60
79049;DHT22;68680;50.764;6.120;2023-05-07T03:53:00;12.80;94.50
79049;DHT22;68680;50.764;6.120;2023-05-07T03:55:26;12.80;94.40
79049;DHT22;68680;50.764;6.120;2023-05-07T03:57:53;12.80;94.40
79049;DHT22;68680;50.764;6.120;2023-05-07T04:00:19;12.80;94.50
79049;DHT22;68680;50.764;6.120;2023-05-07T04:02:44;12.80;94.50
79049;DHT22;68680;50.764;6.120;2023-05-07T04:05:10;12.80;94.50
79049;DHT22;68680;50.764;6.120;2023-05-07T04:07:36;12.80;94.60
79049;DHT22;68680;50.764;6.120;2023-05-07T04:10:02;12.80;94.70
79049;DHT22;68680;50.764;6.120;2023-05-07T04:12:28;12.80;94.80
79049;DHT22;68680;50.764;6.120;2023-05-07T04:14:55;12.80;94.80
79049;DHT22;68680;50.764;6.120;2023-05-07T04:17:20;12.70;94.80
79049;DHT22;68680;50.764;6.120;2023-05-07T04:19:46;12.80;94.90
79049;DHT22;68680;50.764;6.120;2023-05-07T04:22:12;12.80;94.80
79049;DHT22;68680;50.764;6.120;2023-05-07T04:24:38;12.80;94.90
79049;DHT22;68680;50.764;6.120;2023-05-07T04:27:03;12.80;94.80
79049;DHT22;68680;50.764;6.120;2023-05-07T04:29:29;12.90;94.50
79049;DHT22;68680;50.764;6.120;2023-05-07T04:31:56;13.00;94.30
79049;DHT22;68680;50.764;6.120;2023-05-07T04:34:22;13.00;94.20
79049;DHT22;68680;50.764;6.120;2023-05-07T04:36:48;13.00;94.00
79049;DHT22;68680;50.764;6.120;2023-05-07T04:39:17;13.00;94.10
79049;DHT22;68680;50.764;6.120;2023-05-07T04:41:42;13.00;94.10
79049;DHT22;68680;50.764;6.120;2023-05-07T04:44:08;13.00;94.20
79049;DHT22;68680;50.764;6.120;2023-05-07T04:46:34;13.00;94.20
79049;DHT22;68680;50.764;6.120;2023-05-07T04:49:01;13.00;94.10
79049;DHT22;68680;50.764;6.120;2023-05-07T04:51:27;13.00;94.20
79049;DHT22;68680;50.764;6.120;2023-05-07T04:53:52;13.00;94.40
79049;DHT22;68680;50.764;6.120;2023-05-07T04:56:18;13.10;94.30
79049;DHT22;68680;50.764;6.120;2023-05-07T04:58:44;13.10;94.30
79049;DHT22;68680;50.764;6.120;2023-05-07T05:01:09;13.10;94.20
79049;DHT22;68680;50.764;6.120;2023-05-07T05:03:35;13.10;94.30
79049;DHT22;68680;50.764;6.120;2023-05-07T05:06:03;13.10;94.30
79049;DHT22;68680;50.764;6.120;2023-05-07T05:08:30;13.20;94.20
79049;DHT22;68680;50.764;6.120;2023-05-07T05:10:55;13.20;94.10
79049;DHT22;68680;50.764;6.120;2023-05-07T05:13:21;13.30;94.00
79049;DHT22;68680;50.764;6.120;2023-05-07T05:15:47;13.40;94.00
79049;DHT22;68680;50.764;6.120;2023-05-07T05:18:12;13.40;94.10
79049;DHT22;68680;50.764;6.120;2023-05-07T05:20:38;13.50;94.20
79049;DHT22;68680;50.764;6.120;2023-05-07T05:23:05;13.50;94.00
79049;DHT22;68680;50.764;6.120;2023-05-07T05:25:31;13.60;93.70
79049;DHT22;68680;50.764;6.120;2023-05-07T05:27:57;13.70;93.60
79049;DHT22;68680;50.764;6.120;2023-05-07T05:30:23;13.70;93.60
79049;DHT22;68680;50.764;6.120;2023-05-07T05:32:48;13.80;93.50
79049;DHT22;68680;50.764;6.120;2023-05-07T05:35:14;13.90;93.70
79049;DHT22;68680;50.764;6.120;2023-05-07T05:37:40;13.90;93.60
79049;DHT22;68680;50.764;6.120;2023-05-07T05:40:08;14.00;93.60
79049;DHT22;68680;50.764;6.120;2023-05-07T05:42:34;14.10;93.50
79049;DHT22;68680;50.764;6.120;2023-05-07T05:45:00;14.10;93.40
79049;DHT22;68680;50.764;6.120;2023-05-07T05:47:26;14.20;93.30
79049;DHT22;68680;50.764;6.120;2023-05-07T05:49:51;14.20;93.30
79049;DHT22;68680;50.764;6.120;2023-05-07T05:52:17;14.30;93.30
79049;DHT22;68680;50.764;6.120;2023-05-07T05:54:43;14.30;93.20
79049;DHT22;68680;50.764;6.120;2023-05-07T05:57:10;14.30;93.30
79049;DHT22;68680;50.764;6.120;2023-05-07T05:59:36;14.30;93.30
79049;DHT22;68680;50.764;6.120;2023-05-07T06:02:02;14.40;93.40
79049;DHT22;68680;50.764;6.120;2023-05-07T06:04:28;14.50;93.40
79049;DHT22;68680;50.764;6.120;2023-05-07T06:06:54;14.60;93.30
79049;DHT22;68680;50.764;6.120;2023-05-07T06:09:19;14.60;93.20
79049;DHT22;68680;50.764;6.120;2023-05-07T06:11:45;14.70;93.20
79049;DHT22;68680;50.764;6.120;2023-05-07T06:14:12;14.80;93.10
79049;DHT22;68680;50.764;6.120;2023-05-07T06:16:38;14.80;93.00
79049;DHT22;68680;50.764;6.120;2023-05-07T06:19:04;14.90;92.90
79049;DHT22;68680;50.764;6.120;2023-05-07T06:21:30;15.10;92.60
79049;DHT22;68680;50.764;6.120;2023-05-07T06:23:55;15.10;92.50
79049;DHT22;68680;50.764;6.120;2023-05-07T06:26:21;15.20;92.60
79049;DHT22;68680;50.764;6.120;2023-05-07T06:28:47;15.20;92.30
79049;DHT22;68680;50.764;6.120;2023-05-07T06:31:15;15.30;92.20
79049;DHT22;68680;50.764;6.120;2023-05-07T06:33:43;15.30;92.10
79049;DHT22;68680;50.764;6.120;2023-05-07T06:36:09;15.30;91.50
79049;DHT22;68680;50.764;6.120;2023-05-07T06:38:35;15.40;91.50
79049;DHT22;68680;50.764;6.120;2023-05-07T06:41:01;15.40;91.20
79049;DHT22;68680;50.764;6.120;2023-05-07T06:43:27;15.40;91.10
79049;DHT22;68680;50.764;6.120;2023-05-07T06:45:53;15.50;91.10
79049;DHT22;68680;50.764;6.120;2023-05-07T06:48:20;15.60;91.00
79049;DHT22;68680;50.764;6.120;2023-05-07T06:50:45;15.60;90.80
79049;DHT22;68680;50.764;6.120;2023-05-07T06:53:11;15.70;90.60
79049;DHT22;68680;50.764;6.120;2023-05-07T06:55:37;15.80;90.10
79049;DHT22;68680;50.764;6.120;2023-05-07T06:58:03;15.90;90.20
79049;DHT22;68680;50.764;6.120;2023-05-07T07:00:29;16.00;90.40
79049;DHT22;68680;50.764;6.120;2023-05-07T07:02:55;16.00;90.30
79049;DHT22;68680;50.764;6.120;2023-05-07T07:05:22;16.10;90.10
79049;DHT22;68680;50.764;6.120;2023-05-07T07:07:48;16.20;89.40
79049;DHT22;68680;50.764;6.120;2023-05-07T07:10:14;16.40;88.60
79049;DHT22;68680;50.764;6.120;2023-05-07T07:12:39;16.50;87.40
79049;DHT22;68680;50.764;6.120;2023-05-07T07:15:06;16.50;86.80
79049;DHT22;68680;50.764;6.120;2023-05-07T07:17:32;16.50;85.70
79049;DHT22;68680;50.764;6.120;2023-05-07T07:19:58;16.50;85.80
79049;DHT22;68680;50.764;6.120;2023-05-07T07:22:25;16.60;85.40
79049;DHT22;68680;50.764;6.120;2023-05-07T07:24:51;16.70;85.80
79049;DHT22;68680;50.764;6.120;2023-05-07T07:27:17;16.80;85.10
79049;DHT22;68680;50.764;6.120;2023-05-07T07:29:42;16.80;85.20
79049;DHT22;68680;50.764;6.120;2023-05-07T07:32:08;16.90;85.50
79049;DHT22;68680;50.764;6.120;2023-05-07T07:34:34;17.00;81.70
79049;DHT22;68680;50.764;6.120;2023-05-07T07:37:00;17.10;80.60
79049;DHT22;68680;50.764;6.120;2023-05-07T07:39:27;17.20;81.20
79049;DHT22;68680;50.764;6.120;2023-05-07T07:41:52;17.30;81.00
79049;DHT22;68680;50.764;6.120;2023-05-07T07:44:18;17.40;79.90
79049;DHT22;68680;50.764;6.120;2023-05-07T07:46:44;17.50;78.90
79049;DHT22;68680;50.764;6.120;2023-05-07T07:49:10;17.70;78.40
79049;DHT22;68680;50.764;6.120;2023-05-07T07:51:35;17.80;77.10
79049;DHT22;68680;50.764;6.120;2023-05-07T07:54:01;17.90;75.10
79049;DHT22;68680;50.764;6.120;2023-05-07T07:56:28;17.90;74.90
79049;DHT22;68680;50.764;6.120;2023-05-07T07:58:54;17.90;75.40
79049;DHT22;68680;50.764;6.120;2023-05-07T08:01:20;18.00;75.50
79049;DHT22;68680;50.764;6.120;2023-05-07T08:03:46;18.00;75.40
79049;DHT22;68680;50.764;6.120;2023-05-07T08:06:11;18.00;76.50
79049;DHT22;68680;50.764;6.120;2023-05-07T08:08:37;18.10;76.60
79049;DHT22;68680;50.764;6.120;2023-05-07T08:11:03;18.10;73.90
79049;DHT22;68680;50.764;6.120;2023-05-07T08:13:33;18.10;74.20
79049;DHT22;68680;50.764;6.120;2023-05-07T08:15:58;18.20;73.30
79049;DHT22;68680;50.764;6.120;2023-05-07T08:18:25;18.40;71.30
79049;DHT22;68680;50.764;6.120;2023-05-07T08:20:51;18.40;72.70
79049;DHT22;68680;50.764;6.120;2023-05-07T08:23:17;18.40;73.20
79049;DHT22;68680;50.764;6.120;2023-05-07T08:25:42;18.50;73.60
79049;DHT22;68680;50.764;6.120;2023-05-07T08:28:08;18.50;72.10
79049;DHT22;68680;50.764;6.120;2023-05-07T08:30:35;18.50;71.70
79049;DHT22;68680;50.764;6.120;2023-05-07T08:33:01;18.70;70.50
79049;DHT22;68680;50.764;6.120;2023-05-07T08:35:27;18.70;72.70
79049;DHT22;68680;50.764;6.120;2023-05-07T08:37:53;18.80;71.20
79049;DHT22;68680;50.764;6.120;2023-05-07T08:40:19;18.80;71.00
79049;DHT22;68680;50.764;6.120;2023-05-07T08:42:48;19.00;69.40
79049;DHT22;68680;50.764;6.120;2023-05-07T08:45:15;19.10;67.90
79049;DHT22;68680;50.764;6.120;2023-05-07T08:47:46;19.00;70.00
79049;DHT22;68680;50.764;6.120;2023-05-07T08:50:16;18.90;70.20
79049;DHT22;68680;50.764;6.120;2023-05-07T08:52:42;19.00;68.90
79049;DHT22;68680;50.764;6.120;2023-05-07T08:55:09;19.10;69.80
79049;DHT22;68680;50.764;6.120;2023-05-07T08:57:35;19.10;69.20
79049;DHT22;68680;50.764;6.120;2023-05-07T09:00:04;19.10;71.30
79049;DHT22;68680;50.764;6.120;2023-05-07T09:02:31;19.20;69.30
79049;DHT22;68680;50.764;6.120;2023-05-07T09:04:58;19.40;66.40
79049;DHT22;68680;50.764;6.120;2023-05-07T09:07:25;19.50;66.30
79049;DHT22;68680;50.764;6.120;2023-05-07T09:09:50;19.60;66.40
79049;DHT22;68680;50.764;6.120;2023-05-07T09:12:17;19.70;67.20
79049;DHT22;68680;50.764;6.120;2023-05-07T09:14:43;19.80;67.10
79049;DHT22;68680;50.764;6.120;2023-05-07T09:17:09;19.80;66.90
79049;DHT22;68680;50.764;6.120;2023-05-07T09:19:35;20.00;63.70
79049;DHT22;68680;50.764;6.120;2023-05-07T09:22:03;19.90;64.00
79049;DHT22;68680;50.764;6.120;2023-05-07T09:24:30;19.90;66.40
79049;DHT22;68680;50.764;6.120;2023-05-07T09:26:58;19.90;65.10
79049;DHT22;68680;50.764;6.120;2023-05-07T09:29:23;19.90;62.30
79049;DHT22;68680;50.764;6.120;2023-05-07T09:31:50;19.90;65.00
79049;DHT22;68680;50.764;6.120;2023-05-07T09:34:16;19.80;62.60
79049;DHT22;68680;50.764;6.120;2023-05-07T09:36:42;19.80;62.70
79049;DHT22;68680;50.764;6.120;2023-05-07T09:39:09;19.80;63.20
79049;DHT22;68680;50.764;6.120;2023-05-07T09:41:50;19.80;62.50
79049;DHT22;68680;50.764;6.120;2023-05-07T09:44:16;19.80;62.30
79049;DHT22;68680;50.764;6.120;2023-05-07T09:46:43;19.80;63.00
79049;DHT22;68680;50.764;6.120;2023-05-07T09:49:13;19.80;66.00
79049;DHT22;68680;50.764;6.120;2023-05-07T09:51:48;19.60;67.20
79049;DHT22;68680;50.764;6.120;2023-05-07T09:54:17;19.60;68.10
79049;DHT22;68680;50.764;6.120;2023-05-07T09:56:43;19.70;68.50
79049;DHT22;68680;50.764;6.120;2023-05-07T09:59:10;19.80;65.70
79049;DHT22;68680;50.764;6.120;2023-05-07T10:01:40;19.80;64.90
79049;DHT22;68680;50.764;6.120;2023-05-07T10:04:07;19.80;64.90
79049;DHT22;68680;50.764;6.120;2023-05-07T10:06:33;19.90;65.40
79049;DHT22;68680;50.764;6.120;2023-05-07T10:09:00;20.10;64.90
79049;DHT22;68680;50.764;6.120;2023-05-07T10:11:28;20.10;63.50
79049;DHT22;68680;50.764;6.120;2023-05-07T10:13:55;20.20;64.20
79049;DHT22;68680;50.764;6.120;2023-05-07T10:16:21;20.20;64.50
79049;DHT22;68680;50.764;6.120;2023-05-07T10:18:49;20.20;64.40
79049;DHT22;68680;50.764;6.120;2023-05-07T10:21:18;20.10;62.70
79049;DHT22;68680;50.764;6.120;2023-05-07T10:23:47;20.10;64.90
79049;DHT22;68680;50.764;6.120;2023-05-07T10:26:17;20.10;64.00
79049;DHT22;68680;50.764;6.120;2023-05-07T10:28:50;20.10;65.00
79049;DHT22;68680;50.764;6.120;2023-05-07T10:31:35;20.20;64.20
79049;DHT22;68680;50.764;6.120;2023-05-07T10:34:23;20.20;63.80
79049;DHT22;68680;50.764;6.120;2023-05-07T10:36:53;20.30;61.90
79049;DHT22;68680;50.764;6.120;2023-05-07T10:39:21;20.50;62.10
79049;DHT22;68680;50.764;6.120;2023-05-07T10:41:48;20.50;61.30
79049;DHT22;68680;50.764;6.120;2023-05-07T10:44:26;20.50;62.90
79049;DHT22;68680;50.764;6.120;2023-05-07T10:47:06;20.40;59.10
79049;DHT22;68680;50.764;6.120;2023-05-07T10:49:33;20.50;61.40
79049;DHT22;68680;50.764;6.120;2023-05-07T10:52:17;20.50;59.80
79049;DHT22;68680;50.764;6.120;2023-05-07T10:54:44;20.40;58.80
79049;DHT22;68680;50.764;6.120;2023-05-07T10:57:34;20.40;59.50
79049;DHT22;68680;50.764;6.120;2023-05-07T11:00:02;20.30;60.70
79049;DHT22;68680;50.764;6.120;2023-05-07T11:03:04;20.30;63.10
79049;DHT22;68680;50.764;6.120;2023-05-07T11:05:31;20.20;65.50
79049;DHT22;68680;50.764;6.120;2023-05-07T11:07:59;20.10;66.40
79049;DHT22;68680;50.764;6.120;2023-05-07T11:10:47;19.90;66.50
79049;DHT22;68680;50.764;6.120;2023-05-07T11:13:15;19.80;66.30
79049;DHT22;68680;50.764;6.120;2023-05-07T11:15:45;19.70;63.70
79049;DHT22;68680;50.764;6.120;2023-05-07T11:18:13;19.60;66.30
79049;DHT22;68680;50.764;6.120;2023-05-07T11:20:53;19.60;68.20
79049;DHT22;68680;50.764;6.120;2023-05-07T11:23:55;19.50;65.60
79049;DHT22;68680;50.764;6.120;2023-05-07T11:26:25;19.40;67.60
79049;DHT22;68680;50.764;6.120;2023-05-07T11:28:53;19.40;69.20
79049;DHT22;68680;50.764;6.120;2023-05-07T11:31:24;19.20;69.20
79049;DHT22;68680;50.764;6.120;2023-05-07T11:33:53;19.10;71.30
79049;DHT22;68680;50.764;6.120;2023-05-07T11:36:20;19.10;72.60
79049;DHT22;68680;50.764;6.120;2023-05-07T11:38:47;18.90;70.50
79049;DHT22;68680;50.764;6.120;2023-05-07T11:41:13;18.90;70.60
79049;DHT22;68680;50.764;6.120;2023-05-07T11:43:53;18.80;71.20
79049;DHT22;68680;50.764;6.120;2023-05-07T11:46:20;18.80;71.70
79049;DHT22;68680;50.764;6.120;2023-05-07T11:48:48;18.70;72.10
79049;DHT22;68680;50.764;6.120;2023-05-07T11:51:19;18.60;72.10
79049;DHT22;68680;50.764;6.120;2023-05-07T11:53:45;18.60;74.90
79049;DHT22;68680;50.764;6.120;2023-05-07T11:56:12;18.50;76.40
79049;DHT22;68680;50.764;6.120;2023-05-07T11:58:40;18.50;72.70
79049;DHT22;68680;50.764;6.120;2023-05-07T12:01:08;18.50;74.60
79049;DHT22;68680;50.764;6.120;2023-05-07T12:03:34;18.50;78.10
79049;DHT22;68680;50.764;6.120;2023-05-07T12:06:01;18.40;81.00
79049;DHT22;68680;50.764;6.120;2023-05-07T12:08:28;18.30;82.00
79049;DHT22;68680;50.764;6.120;2023-05-07T12:10:53;18.30;82.60
79049;DHT22;68680;50.764;6.120;2023-05-07T12:13:21;18.20;83.10
79049;DHT22;68680;50.764;6.120;2023-05-07T12:15:50;18.20;83.20
79049;DHT22;68680;50.764;6.120;2023-05-07T12:18:17;18.20;83.30
79049;DHT22;68680;50.764;6.120;2023-05-07T12:20:43;18.20;83.00
79049;DHT22;68680;50.764;6.120;2023-05-07T12:23:12;18.20;84.20
79049;DHT22;68680;50.764;6.120;2023-05-07T12:25:39;18.20;84.50
79049;DHT22;68680;50.764;6.120;2023-05-07T12:28:07;18.20;84.40
79049;DHT22;68680;50.764;6.120;2023-05-07T12:30:36;18.30;86.00
79049;DHT22;68680;50.764;6.120;2023-05-07T12:33:03;18.40;84.70
79049;DHT22;68680;50.764;6.120;2023-05-07T12:35:28;18.50;85.30
79049;DHT22;68680;50.764;6.120;2023-05-07T12:37:55;18.60;85.00
79049;DHT22;68680;50.764;6.120;2023-05-07T12:40:23;18.60;84.60
79049;DHT22;68680;50.764;6.120;2023-05-07T12:42:52;18.50;84.30
79049;DHT22;68680;50.764;6.120;2023-05-07T12:45:19;18.40;86.00
79049;DHT22;68680;50.764;6.120;2023-05-07T12:47:45;18.40;85.00
79049;DHT22;68680;50.764;6.120;2023-05-07T12:50:11;18.30;84.10
79049;DHT22;68680;50.764;6.120;2023-05-07T12:52:38;18.40;83.80
79049;DHT22;68680;50.764;6.120;2023-05-07T12:55:07;18.60;83.30
79049;DHT22;68680;50.764;6.120;2023-05-07T12:57:39;18.90;82.00
79049;DHT22;68680;50.764;6.120;2023-05-07T13:00:06;19.10;80.10
79049;DHT22;68680;50.764;6.120;2023-05-07T13:02:33;19.20;80.60
79049;DHT22;68680;50.764;6.120;2023-05-07T13:04:59;19.50;79.50
79049;DHT22;68680;50.764;6.120;2023-05-07T13:07:25;19.80;77.70
79049;DHT22;68680;50.764;6.120;2023-05-07T13:09:50;20.10;76.60
79049;DHT22;68680;50.764;6.120;2023-05-07T13:12:16;20.40;75.00
79049;DHT22;68680;50.764;6.120;2023-05-07T13:14:43;20.40;73.50
79049;DHT22;68680;50.764;6.120;2023-05-07T13:17:09;20.40;74.50
79049;DHT22;68680;50.764;6.120;2023-05-07T13:19:35;20.30;75.50
79049;DHT22;68680;50.764;6.120;2023-05-07T13:22:00;20.10;76.10
79049;DHT22;68680;50.764;6.120;2023-05-07T13:24:26;20.00;76.40
79049;DHT22;68680;50.764;6.120;2023-05-07T13:26:52;19.70;76.60
79049;DHT22;68680;50.764;6.120;2023-05-07T13:29:18;19.70;76.60
79049;DHT22;68680;50.764;6.120;2023-05-07T13:31:45;19.80;76.90
79049;DHT22;68680;50.764;6.120;2023-05-07T13:34:11;19.70;76.40
79049;DHT22;68680;50.764;6.120;2023-05-07T13:36:36;19.60;77.00
79049;DHT22;68680;50.764;6.120;2023-05-07T13:39:02;19.60;77.30
79049;DHT22;68680;50.764;6.120;2023-05-07T13:41:28;19.70;77.00
79049;DHT22;68680;50.764;6.120;2023-05-07T13:43:55;19.60;75.90
79049;DHT22;68680;50.764;6.120;2023-05-07T13:46:21;19.70;76.50
79049;DHT22;68680;50.764;6.120;2023-05-07T13:48:48;19.60;76.70
79049;DHT22;68680;50.764;6.120;2023-05-07T13:51:14;19.70;77.30
79049;DHT22;68680;50.764;6.120;2023-05-07T13:53:40;19.60;77.50
79049;DHT22;68680;50.764;6.120;2023-05-07T13:56:06;19.50;77.50
79049;DHT22;68680;50.764;6.120;2023-05-07T13:58:31;19.50;77.30
79049;DHT22;68680;50.764;6.120;2023-05-07T14:00:57;19.40;78.70
79049;DHT22;68680;50.764;6.120;2023-05-07T14:03:23;19.20;77.50
79049;DHT22;68680;50.764;6.120;2023-05-07T14:05:50;19.30;77.10
79049;DHT22;68680;50.764;6.120;2023-05-07T14:08:16;19.30;77.20
79049;DHT22;68680;50.764;6.120;2023-05-07T14:10:42;19.30;77.10
79049;DHT22;68680;50.764;6.120;2023-05-07T14:13:07;19.30;76.50
79049;DHT22;68680;50.764;6.120;2023-05-07T14:15:33;19.40;74.50
79049;DHT22;68680;50.764;6.120;2023-05-07T14:18:00;19.40;74.80
79049;DHT22;68680;50.764;6.120;2023-05-07T14:20:26;19.40;75.40
79049;DHT22;68680;50.764;6.120;2023-05-07T14:22:53;19.40;74.50
79049;DHT22;68680;50.764;6.120;2023-05-07T14:25:19;19.40;75.20
79049;DHT22;68680;50.764;6.120;2023-05-07T14:27:45;19.40;76.30
79049;DHT22;68680;50.764;6.120;2023-05-07T14:30:11;19.40;77.40
79049;DHT22;68680;50.764;6.120;2023-05-07T14:32:37;19.30;77.10
79049;DHT22;68680;50.764;6.120;2023-05-07T14:35:04;19.30;78.40
79049;DHT22;68680;50.764;6.120;2023-05-07T14:37:30;19.30;78.30
79049;DHT22;68680;50.764;6.120;2023-05-07T14:39:57;19.30;76.70
79049;DHT22;68680;50.764;6.120;2023-05-07T14:42:22;19.30;77.80
79049;DHT22;68680;50.764;6.120;2023-05-07T14:44:48;19.30;76.30
79049;DHT22;68680;50.764;6.120;2023-05-07T14:47:14;19.20;76.70
79049;DHT22;68680;50.764;6.120;2023-05-07T14:49:40;19.20;74.90
79049;DHT22;68680;50.764;6.120;2023-05-07T14:52:06;19.20;75.80
79049;DHT22;68680;50.764;6.120;2023-05-07T14:54:33;19.10;75.40
79049;DHT22;68680;50.764;6.120;2023-05-07T14:57:00;19.10;75.40
79049;DHT22;68680;50.764;6.120;2023-05-07T14:59:26;19.00;75.50
79049;DHT22;68680;50.764;6.120;2023-05-07T15:01:52;19.00;76.70
79049;DHT22;68680;50.764;6.120;2023-05-07T15:04:19;19.00;78.80
79049;DHT22;68680;50.764;6.120;2023-05-07T15:06:45;18.90;77.30
79049;DHT22;68680;50.764;6.120;2023-05-07T15:09:11;18.90;80.40
79049;DHT22;68680;50.764;6.120;2023-05-07T15:11:37;18.70;81.40
79049;DHT22;68680;50.764;6.120;2023-05-07T15:14:04;18.50;82.60
79049;DHT22;68680;50.764;6.120;2023-05-07T15:16:30;18.40;82.90
79049;DHT22;68680;50.764;6.120;2023-05-07T15:18:55;18.40;83.10
79049;DHT22;68680;50.764;6.120;2023-05-07T15:21:21;18.30;82.70
79049;DHT22;68680;50.764;6.120;2023-05-07T15:23:47;18.40;82.20
79049;DHT22;68680;50.764;6.120;2023-05-07T15:26:13;18.30;83.10
79049;DHT22;68680;50.764;6.120;2023-05-07T15:28:38;18.20;83.00